createdAt,value
2019-02-25T00:01:14.963Z,7.07
2019-02-25T00:03:45.324Z,7.04
2019-02-25T00:06:15.874Z,6.98
2019-02-25T00:08:46.808Z,6.96
2019-02-25T00:11:17.095Z,6.89
2019-02-25T00:13:47.278Z,6.87
2019-02-25T00:16:28.490Z,6.85
2019-02-25T00:18:58.687Z,6.77
2019-02-25T00:21:45.019Z,6.80
2019-02-25T00:24:15.210Z,6.75
2019-02-25T00:34:22.299Z,6.64
2019-02-25T00:36:52.471Z,6.54
2019-02-25T00:39:22.660Z,6.43
2019-02-25T00:41:52.899Z,6.45
2019-02-25T00:44:23.094Z,6.38
2019-02-25T00:47:03.357Z,6.35
2019-02-25T00:49:34.531Z,6.36
2019-02-25T00:52:04.780Z,6.33
2019-02-25T00:54:34.961Z,6.34
2019-02-25T00:57:06.175Z,6.34
2019-02-25T00:59:45.166Z,6.36
2019-02-25T01:02:15.354Z,6.37
2019-02-25T01:04:53.041Z,6.24
2019-02-25T01:07:32.107Z,6.18
2019-02-25T01:10:02.299Z,6.14
2019-02-25T01:12:33.553Z,6.03
2019-02-25T01:15:04.400Z,6.03
2019-02-25T01:17:34.645Z,6.07
2019-02-25T01:20:07.776Z,6.14
2019-02-25T01:22:44.161Z,6.04
2019-02-25T01:25:30.749Z,6.05
2019-02-25T01:28:13.802Z,5.93
2019-02-25T01:30:44.007Z,6.04
2019-02-25T01:33:14.183Z,6.05
2019-02-25T01:35:44.386Z,6.04
2019-02-25T01:38:15.717Z,6.08
2019-02-25T01:40:46.035Z,6.09
2019-02-25T01:43:16.224Z,6.00
2019-02-25T01:45:46.421Z,5.90
2019-02-25T01:48:16.610Z,5.96
2019-02-25T01:50:46.818Z,5.84
2019-02-25T01:53:17.012Z,5.86
2019-02-25T01:55:49.154Z,5.76
2019-02-25T01:58:19.343Z,5.69
2019-02-25T02:00:49.530Z,5.51
2019-02-25T02:03:23.878Z,5.46
2019-02-25T02:06:07.979Z,5.43
2019-02-25T02:08:51.528Z,5.30
2019-02-25T02:11:21.713Z,5.36
2019-02-25T02:13:51.932Z,5.34
2019-02-25T02:16:22.096Z,5.23
2019-02-25T02:18:59.356Z,5.37
2019-02-25T02:21:29.533Z,5.44
2019-02-25T02:23:59.717Z,5.40
2019-02-25T02:26:29.900Z,5.37
2019-02-25T02:29:02.087Z,5.37
2019-02-25T02:31:32.278Z,5.39
2019-02-25T02:34:02.458Z,5.35
2019-02-25T02:36:32.648Z,5.26
2019-02-25T02:39:03.110Z,5.20
2019-02-25T02:41:40.865Z,5.06
2019-02-25T02:44:11.059Z,5.00
2019-02-25T02:47:19.180Z,5.07
2019-02-25T02:49:49.367Z,5.17
2019-02-25T02:52:22.598Z,5.21
2019-02-25T02:54:52.810Z,5.18
2019-02-25T02:57:22.992Z,5.28
2019-02-25T02:59:53.190Z,5.26
2019-02-25T03:02:29.921Z,5.28
2019-02-25T03:05:00.285Z,5.27
2019-02-25T03:07:30.444Z,5.35
2019-02-25T03:10:00.632Z,5.33
2019-02-25T03:12:30.830Z,5.31
2019-02-25T03:15:01.037Z,5.34
2019-02-25T03:17:31.284Z,5.37
2019-02-25T03:20:02.630Z,5.36
2019-02-25T03:22:32.876Z,5.38
2019-02-25T03:25:19.456Z,5.44
2019-02-25T03:27:49.616Z,5.46
2019-02-25T03:30:21.723Z,5.46
2019-02-25T03:32:51.924Z,5.44
2019-02-25T03:35:22.131Z,5.45
2019-02-25T03:37:52.321Z,5.49
2019-02-25T03:40:23.565Z,5.49
2019-02-25T03:42:53.770Z,5.56
2019-02-25T03:45:23.959Z,5.56
2019-02-25T03:47:59.601Z,5.57
2019-02-25T03:50:36.838Z,5.52
2019-02-25T03:53:08.575Z,5.48
2019-02-25T03:55:38.836Z,5.30
2019-02-25T03:58:28.192Z,5.09
2019-02-25T04:00:58.378Z,5.10
2019-02-25T04:03:28.564Z,5.18
2019-02-25T04:06:05.969Z,5.05
2019-02-25T04:08:36.152Z,5.08
2019-02-25T04:11:06.348Z,5.12
2019-02-25T04:13:39.206Z,5.15
2019-02-25T04:16:09.459Z,5.15
2019-02-25T04:18:39.657Z,5.12
2019-02-25T04:21:09.847Z,5.12
2019-02-25T04:23:49.007Z,5.21
2019-02-25T04:26:19.202Z,5.19
2019-02-25T04:28:49.392Z,5.15
2019-02-25T04:31:38.050Z,5.12
2019-02-25T04:34:14.695Z,5.13
2019-02-25T04:36:44.870Z,5.02
2019-02-25T04:39:25.557Z,5.08
2019-02-25T04:41:55.725Z,5.03
2019-02-25T04:44:29.738Z,4.89
2019-02-25T04:46:59.936Z,4.98
2019-02-25T04:49:30.122Z,5.00
2019-02-25T04:52:01.228Z,4.96
2019-02-25T04:54:31.421Z,4.98
2019-02-25T04:57:01.628Z,4.99
2019-02-25T04:59:31.822Z,5.01
2019-02-25T05:02:02.395Z,4.97
2019-02-25T05:04:32.667Z,4.92
2019-02-25T05:07:02.880Z,4.83
2019-02-25T05:09:33.059Z,4.88
2019-02-25T05:12:03.247Z,4.90
2019-02-25T05:14:40.026Z,4.86
2019-02-25T05:17:45.416Z,4.79
2019-02-25T05:20:15.600Z,4.64
2019-02-25T05:22:45.804Z,4.62
2019-02-25T05:25:19.214Z,4.57
2019-02-25T05:27:49.391Z,4.60
2019-02-25T05:30:31.949Z,4.70
2019-02-25T05:33:02.151Z,4.66
2019-02-25T05:36:06.830Z,4.59
2019-02-25T05:38:37.033Z,4.67
2019-02-25T05:41:12.299Z,4.58
2019-02-25T05:43:42.505Z,4.48
2019-02-25T05:46:12.710Z,4.56
2019-02-25T05:48:56.200Z,4.60
2019-02-25T05:51:26.392Z,4.57
2019-02-25T05:53:56.582Z,4.57
2019-02-25T05:56:26.784Z,4.55
2019-02-25T05:59:04.196Z,4.48
2019-02-25T06:01:36.298Z,4.49
2019-02-25T06:04:06.483Z,4.55
2019-02-25T06:06:44.521Z,4.51
2019-02-25T06:09:14.726Z,4.46
2019-02-25T06:11:57.356Z,4.39
2019-02-25T06:14:33.020Z,4.32
2019-02-25T06:17:03.197Z,4.30
2019-02-25T06:19:33.404Z,4.36
2019-02-25T06:22:03.593Z,4.40
2019-02-25T06:24:33.788Z,4.34
2019-02-25T06:27:06.661Z,4.41
2019-02-25T06:29:36.854Z,4.42
2019-02-25T06:32:17.853Z,4.35
2019-02-25T06:34:48.072Z,4.39
2019-02-25T06:37:18.253Z,4.46
2019-02-25T06:39:54.326Z,4.48
2019-02-25T06:42:39.662Z,4.51
2019-02-25T06:45:15.692Z,4.54
2019-02-25T06:47:45.887Z,4.60
2019-02-25T06:50:16.159Z,4.50
2019-02-25T06:53:02.642Z,4.45
2019-02-25T06:55:38.339Z,4.57
2019-02-25T06:58:50.968Z,4.29
2019-02-25T07:01:22.091Z,4.39
2019-02-25T07:04:05.027Z,4.53
2019-02-25T07:06:36.832Z,4.44
2019-02-25T07:09:11.155Z,4.54
2019-02-25T07:11:42.998Z,4.54
2019-02-25T07:14:26.052Z,4.66
2019-02-25T07:17:02.146Z,4.71
2019-02-25T07:19:46.943Z,4.89
2019-02-25T07:22:18.790Z,5.06
2019-02-25T07:24:56.310Z,5.18
2019-02-25T07:27:43.215Z,5.33
2019-02-25T07:30:15.049Z,5.57
2019-02-25T07:32:49.738Z,5.91
2019-02-25T07:35:21.552Z,5.96
2019-02-25T07:38:03.519Z,6.03
2019-02-25T07:41:15.438Z,6.19
2019-02-25T07:44:06.023Z,6.46
2019-02-25T07:46:43.373Z,7.12
2019-02-25T07:49:27.366Z,7.70
2019-02-25T07:52:10.541Z,7.99
2019-02-25T07:54:58.871Z,8.30
2019-02-25T07:57:46.657Z,8.37
2019-02-25T08:00:40.953Z,8.99
2019-02-25T08:03:18.782Z,9.36
2019-02-25T08:05:50.602Z,9.53
2019-02-25T08:08:27.999Z,9.52
2019-02-25T08:11:02.755Z,9.60
2019-02-25T08:13:47.534Z,9.89
2019-02-25T08:16:25.393Z,10.07
2019-02-25T08:19:05.992Z,9.93
2019-02-25T08:21:41.922Z,10.06
2019-02-25T08:24:13.768Z,10.24
2019-02-25T08:27:09.637Z,10.38
2019-02-25T08:29:47.456Z,10.75
2019-02-25T08:32:19.349Z,10.95
2019-02-25T08:35:08.212Z,10.87
2019-02-25T08:37:59.129Z,11.12
2019-02-25T08:40:44.743Z,11.26
2019-02-25T08:43:18.089Z,11.69
2019-02-25T08:45:55.721Z,11.84
2019-02-25T08:48:29.990Z,12.01
2019-02-25T08:51:00.176Z,12.38
2019-02-25T08:53:30.373Z,12.48
2019-02-25T08:56:00.575Z,12.67
2019-02-25T08:58:30.749Z,12.70
2019-02-25T09:01:00.946Z,12.63
2019-02-25T09:03:31.139Z,12.74
2019-02-25T09:06:01.332Z,12.79
2019-02-25T09:08:31.517Z,12.81
2019-02-25T09:11:01.731Z,12.78
2019-02-25T09:13:32.973Z,12.78
2019-02-25T09:16:04.234Z,12.79
2019-02-25T09:18:34.427Z,12.88
2019-02-25T09:21:04.713Z,12.91
2019-02-25T09:23:35.866Z,13.05
2019-02-25T09:26:06.093Z,12.96
2019-02-25T09:28:36.277Z,12.89
2019-02-25T09:31:06.502Z,13.02
2019-02-25T09:33:36.783Z,13.16
2019-02-25T09:36:07.027Z,13.34
2019-02-25T09:38:37.247Z,13.43
2019-02-25T09:41:19.605Z,13.50
2019-02-25T09:43:49.798Z,13.74
2019-02-25T09:46:19.988Z,13.77
2019-02-25T09:48:50.172Z,14.01
2019-02-25T09:51:20.380Z,14.00
2019-02-25T09:53:50.550Z,14.11
2019-02-25T09:56:20.757Z,14.24
2019-02-25T09:58:52.003Z,14.55
2019-02-25T10:02:00.170Z,14.61
2019-02-25T10:04:30.367Z,14.80
2019-02-25T10:07:02.446Z,14.87
2019-02-25T10:09:38.122Z,14.76
2019-02-25T10:12:08.308Z,14.99
2019-02-25T10:14:38.509Z,14.78
2019-02-25T10:17:08.734Z,14.99
2019-02-25T10:19:39.114Z,15.07
2019-02-25T10:22:10.344Z,14.96
2019-02-25T10:24:40.515Z,14.87
2019-02-25T10:27:10.719Z,14.89
2019-02-25T10:29:40.914Z,14.86
2019-02-25T10:32:12.079Z,15.13
2019-02-25T10:34:42.323Z,15.32
2019-02-25T10:37:49.677Z,15.48
2019-02-25T10:40:24.039Z,15.66
2019-02-25T10:42:51.737Z,15.73
2019-02-25T10:45:25.993Z,15.78
2019-02-25T10:47:58.659Z,15.87
2019-02-25T10:50:28.840Z,15.95
2019-02-25T10:53:03.729Z,15.97
2019-02-25T10:55:41.387Z,15.95
2019-02-25T10:58:12.016Z,16.08
2019-02-25T11:00:43.825Z,16.02
2019-02-25T11:03:24.055Z,16.19
2019-02-25T11:06:00.808Z,16.17
2019-02-25T11:08:32.566Z,16.21
2019-02-25T11:11:05.541Z,16.28
2019-02-25T11:13:36.733Z,16.37
2019-02-25T11:16:16.452Z,16.31
2019-02-25T11:18:47.210Z,16.26
2019-02-25T11:21:17.393Z,16.23
2019-02-25T11:23:49.229Z,16.14
2019-02-25T11:26:20.472Z,16.27
2019-02-25T11:28:50.683Z,16.14
2019-02-25T11:31:24.097Z,16.35
2019-02-25T11:33:52.757Z,16.43
2019-02-25T11:36:24.019Z,16.48
2019-02-25T11:38:54.207Z,16.61
2019-02-25T11:41:24.646Z,16.77
2019-02-25T11:43:55.328Z,16.80
2019-02-25T11:46:31.103Z,16.70
2019-02-25T11:49:01.285Z,16.79
2019-02-25T11:51:37.358Z,16.91
2019-02-25T11:54:07.567Z,16.96
2019-02-25T11:56:46.123Z,17.07
2019-02-25T11:59:16.330Z,17.16
2019-02-25T12:01:46.506Z,17.22
2019-02-25T12:04:53.743Z,17.26
2019-02-25T12:07:23.922Z,17.21
2019-02-25T12:10:00.345Z,17.14
2019-02-25T12:12:30.593Z,17.06
2019-02-25T12:15:00.796Z,17.09
2019-02-25T12:17:30.970Z,17.10
2019-02-25T12:20:01.180Z,17.16
2019-02-25T12:22:33.303Z,17.24
2019-02-25T12:25:04.546Z,17.37
2019-02-25T12:27:34.728Z,17.44
2019-02-25T12:30:11.861Z,17.49
2019-02-25T12:32:42.054Z,17.40
2019-02-25T12:35:12.507Z,17.46
2019-02-25T12:37:42.712Z,17.53
2019-02-25T12:40:30.979Z,17.45
2019-02-25T12:43:01.148Z,17.58
2019-02-25T12:45:31.374Z,17.57
2019-02-25T12:48:01.557Z,17.73
2019-02-25T12:50:38.521Z,17.77
2019-02-25T12:53:20.731Z,17.82
2019-02-25T12:55:50.935Z,17.92
2019-02-25T12:58:21.208Z,17.87
2019-02-25T13:00:52.301Z,17.66
2019-02-25T13:03:22.503Z,17.80
2019-02-25T13:06:01.454Z,17.90
2019-02-25T13:08:50.688Z,17.92
2019-02-25T13:11:26.647Z,18.01
2019-02-25T13:14:16.829Z,18.03
2019-02-25T13:16:50.158Z,18.11
2019-02-25T13:19:20.342Z,17.95
2019-02-25T13:21:54.363Z,18.00
2019-02-25T13:24:24.542Z,17.99
2019-02-25T13:26:54.731Z,18.03
2019-02-25T13:29:24.916Z,18.08
2019-02-25T13:31:59.027Z,17.91
2019-02-25T13:34:29.215Z,17.93
2019-02-25T13:36:59.407Z,17.94
2019-02-25T13:39:29.613Z,17.86
2019-02-25T13:41:59.781Z,17.91
2019-02-25T13:44:29.987Z,17.87
2019-02-25T13:47:00.166Z,17.78
2019-02-25T13:49:46.246Z,17.84
2019-02-25T13:52:16.430Z,17.78
2019-02-25T13:54:46.662Z,17.70
2019-02-25T13:57:16.834Z,17.73
2019-02-25T13:59:47.038Z,17.72
2019-02-25T14:02:21.611Z,17.67
2019-02-25T14:04:51.815Z,17.66
2019-02-25T14:07:27.930Z,17.65
2019-02-25T14:10:00.092Z,17.58
2019-02-25T14:12:30.483Z,17.56
2019-02-25T14:15:00.684Z,17.63
2019-02-25T14:17:41.978Z,17.62
2019-02-25T14:20:18.000Z,17.68
2019-02-25T14:22:48.286Z,17.68
2019-02-25T14:25:26.954Z,17.67
2019-02-25T14:28:08.280Z,17.68
2019-02-25T14:30:39.782Z,17.74
2019-02-25T14:33:23.593Z,17.70
2019-02-25T14:36:10.990Z,17.67
2019-02-25T14:38:41.244Z,17.58
2019-02-25T14:41:13.376Z,17.55
2019-02-25T14:43:47.029Z,17.55
2019-02-25T14:46:17.306Z,17.62
2019-02-25T14:48:47.306Z,17.63
2019-02-25T14:51:18.474Z,17.57
2019-02-25T14:53:49.501Z,17.67
2019-02-25T14:56:49.605Z,17.68
2019-02-25T14:59:20.385Z,17.68
2019-02-25T15:01:51.165Z,17.57
2019-02-25T15:04:35.850Z,17.64
2019-02-25T15:07:08.647Z,17.65
2019-02-25T15:09:39.720Z,17.67
2019-02-25T15:12:16.086Z,17.57
2019-02-25T15:15:00.200Z,17.59
2019-02-25T15:17:30.575Z,17.50
2019-02-25T15:20:00.777Z,17.55
2019-02-25T15:22:40.774Z,17.50
2019-02-25T15:25:23.529Z,17.49
2019-02-25T15:27:53.712Z,17.46
2019-02-25T15:30:30.883Z,17.40
2019-02-25T15:33:01.186Z,17.45
2019-02-25T15:35:39.238Z,17.41
2019-02-25T15:38:21.545Z,17.42
2019-02-25T15:40:51.806Z,17.39
2019-02-25T15:43:23.302Z,17.48
2019-02-25T15:45:54.154Z,17.47
2019-02-25T15:48:24.345Z,17.55
2019-02-25T15:51:00.710Z,17.45
2019-02-25T15:53:31.117Z,17.39
2019-02-25T15:56:14.585Z,17.42
2019-02-25T15:58:50.781Z,17.45
2019-02-25T16:01:20.981Z,17.43
2019-02-25T16:03:51.309Z,17.37
2019-02-25T16:06:28.824Z,17.38
2019-02-25T16:08:59.274Z,17.28
2019-02-25T16:11:32.035Z,17.23
2019-02-25T16:14:07.172Z,17.20
2019-02-25T16:16:37.620Z,17.18
2019-02-25T16:19:07.879Z,17.20
2019-02-25T16:21:58.510Z,17.09
2019-02-25T16:24:34.191Z,17.01
2019-02-25T16:27:19.403Z,16.84
2019-02-25T16:29:49.753Z,16.83
2019-02-25T16:32:20.009Z,16.77
2019-02-25T16:34:51.937Z,16.68
2019-02-25T16:37:24.947Z,16.59
2019-02-25T16:40:12.404Z,16.54
2019-02-25T16:45:59.491Z,16.30
2019-02-25T16:48:32.650Z,16.15
2019-02-25T16:51:10.780Z,16.06
2019-02-25T16:53:43.365Z,15.98
2019-02-25T16:56:16.061Z,15.91
2019-02-25T16:58:47.704Z,15.83
2019-02-25T17:01:19.671Z,15.76
2019-02-25T17:03:49.823Z,15.65
2019-02-25T17:06:20.019Z,15.54
2019-02-25T17:08:51.042Z,15.44
2019-02-25T17:11:22.007Z,15.35
2019-02-25T17:13:54.741Z,15.29
2019-02-25T17:16:25.254Z,15.21
2019-02-25T17:19:06.452Z,15.15
2019-02-25T17:21:36.940Z,14.98
2019-02-25T17:24:16.136Z,14.86
2019-02-25T17:27:01.935Z,14.79
2019-02-25T17:29:34.165Z,14.67
2019-02-25T17:32:25.368Z,14.57
2019-02-25T17:35:09.456Z,14.42
2019-02-25T17:37:56.258Z,14.34
2019-02-25T17:40:48.705Z,14.28
2019-02-25T17:43:20.220Z,14.14
2019-02-25T17:45:50.731Z,14.06
2019-02-25T17:48:21.268Z,13.93
2019-02-25T17:50:53.437Z,13.92
2019-02-25T17:53:24.175Z,13.87
2019-02-25T17:55:59.413Z,13.79
2019-02-25T17:58:29.283Z,13.67
2019-02-25T18:01:01.065Z,13.59
2019-02-25T18:03:32.477Z,13.48
2019-02-25T18:06:03.486Z,13.39
2019-02-25T18:08:35.322Z,13.25
2019-02-25T18:11:09.698Z,13.16
2019-02-25T18:13:46.769Z,13.13
2019-02-25T18:16:18.976Z,13.12
2019-02-25T18:18:50.765Z,13.11
2019-02-25T18:21:21.260Z,13.07
2019-02-25T18:24:01.393Z,13.07
2019-02-25T18:26:32.209Z,13.03
2019-02-25T18:32:13.314Z,12.85
2019-02-25T18:34:44.558Z,12.79
2019-02-25T18:37:15.617Z,12.73
2019-02-25T18:39:54.289Z,12.72
2019-02-25T18:42:24.329Z,12.67
2019-02-25T18:44:57.673Z,12.58
2019-02-25T18:47:27.940Z,12.52
2019-02-25T18:50:07.411Z,12.47
2019-02-25T18:52:38.502Z,12.48
2019-02-25T18:55:12.023Z,12.41
2019-02-25T18:57:51.932Z,12.32
2019-02-25T19:00:45.314Z,12.27
2019-02-25T19:03:17.790Z,12.22
2019-02-25T19:06:06.891Z,12.21
2019-02-25T19:08:37.110Z,12.12
2019-02-25T19:11:07.328Z,12.21
2019-02-25T19:13:37.693Z,12.12
2019-02-25T19:16:09.009Z,12.04
2019-02-25T19:18:41.340Z,11.95
2019-02-25T19:21:11.085Z,11.86
2019-02-25T19:23:44.109Z,12.02
2019-02-25T19:26:21.897Z,11.84
2019-02-25T19:29:08.185Z,11.76
2019-02-25T19:31:39.905Z,11.69
2019-02-25T19:34:15.497Z,11.60
2019-02-25T19:36:44.253Z,11.54
2019-02-25T19:39:23.224Z,11.43
2019-02-25T19:42:05.418Z,11.41
2019-02-25T19:44:44.592Z,11.32
2019-02-25T19:47:20.479Z,11.29
2019-02-25T19:50:16.830Z,11.02
2019-02-25T19:52:47.142Z,10.98
2019-02-25T19:55:23.249Z,10.95
2019-02-25T19:58:02.942Z,10.99
2019-02-25T20:01:00.866Z,10.96
2019-02-25T20:03:28.978Z,10.93
2019-02-25T20:06:00.138Z,10.90
2019-02-25T20:08:56.403Z,10.94
2019-02-25T20:11:28.604Z,10.96
2019-02-25T20:14:01.521Z,10.86
2019-02-25T20:16:33.137Z,10.79
2019-02-25T20:19:09.234Z,10.75
2019-02-25T20:21:40.741Z,10.78
2019-02-25T20:24:14.384Z,10.79
2019-02-25T20:26:44.085Z,10.74
2019-02-25T20:29:15.220Z,10.68
2019-02-25T20:31:47.415Z,10.65
2019-02-25T20:34:25.901Z,10.74
2019-02-25T20:36:59.920Z,10.46
2019-02-25T20:39:31.783Z,10.46
2019-02-25T20:42:01.983Z,10.57
2019-02-25T20:44:37.769Z,10.55
2019-02-25T20:47:15.006Z,10.67
2019-02-25T20:49:47.393Z,10.61
2019-02-25T20:52:18.132Z,10.52
2019-02-25T20:54:52.162Z,10.48
2019-02-25T20:57:29.615Z,10.50
2019-02-25T21:00:08.991Z,10.48
2019-02-25T21:02:40.612Z,10.33
2019-02-25T21:05:13.922Z,10.26
2019-02-25T21:07:43.191Z,10.23
2019-02-25T21:10:18.950Z,10.32
2019-02-25T21:12:50.346Z,10.18
2019-02-25T21:15:35.441Z,10.12
2019-02-25T21:18:07.688Z,10.06
2019-02-25T21:20:40.059Z,9.96
2019-02-25T21:23:12.466Z,9.86
2019-02-25T21:25:44.183Z,9.72
2019-02-25T21:28:17.133Z,9.59
2019-02-25T21:30:54.295Z,9.51
2019-02-25T21:33:34.548Z,9.48
2019-02-25T21:36:04.745Z,9.51
2019-02-25T21:38:36.870Z,9.57
2019-02-25T21:41:08.973Z,9.56
2019-02-25T21:43:38.960Z,9.48
2019-02-25T21:46:09.143Z,9.48
2019-02-25T21:48:50.966Z,9.41
2019-02-25T21:51:20.221Z,9.43
2019-02-25T21:54:08.938Z,9.36
2019-02-25T21:56:39.444Z,9.34
2019-02-25T21:59:17.464Z,9.28
2019-02-25T22:02:07.454Z,9.27
2019-02-25T22:04:40.433Z,9.26
2019-02-25T22:07:19.838Z,9.17
2019-02-25T22:09:53.092Z,9.16
2019-02-25T22:12:33.030Z,9.20
2019-02-25T22:15:42.885Z,9.22
2019-02-25T22:18:14.109Z,9.13
2019-02-25T22:20:47.077Z,9.02
2019-02-25T22:23:16.773Z,9.01
2019-02-25T22:26:05.190Z,9.02
2019-02-25T22:28:55.275Z,8.97
2019-02-25T22:32:01.837Z,8.91
2019-02-25T22:34:33.841Z,8.80
2019-02-25T22:37:04.288Z,8.79
2019-02-25T22:39:43.816Z,8.71
2019-02-25T22:42:15.020Z,8.68
2019-02-25T22:44:47.477Z,8.59
2019-02-25T22:47:18.462Z,8.38
2019-02-25T22:49:49.278Z,8.30
2019-02-25T22:53:01.622Z,8.19
2019-02-25T22:55:39.241Z,8.12
2019-02-25T22:58:08.826Z,8.13
2019-02-25T23:00:58.226Z,8.09
2019-02-25T23:03:28.337Z,8.14
2019-02-25T23:06:15.631Z,8.18
2019-02-25T23:08:46.980Z,8.14
2019-02-25T23:11:30.290Z,8.17
2019-02-25T23:14:00.554Z,7.99
2019-02-25T23:16:52.360Z,7.94
2019-02-25T23:19:22.636Z,7.93
2019-02-25T23:21:52.919Z,7.78
2019-02-25T23:24:37.438Z,7.77
2019-02-25T23:27:08.217Z,7.73
2019-02-25T23:29:38.809Z,7.43
2019-02-25T23:32:09.986Z,7.52
2019-02-25T23:34:55.594Z,7.41
2019-02-25T23:37:25.843Z,7.33
2019-02-25T23:39:55.986Z,7.32
2019-02-25T23:42:26.195Z,7.39
2019-02-25T23:45:46.295Z,7.43
2019-02-25T23:48:16.626Z,7.35
2019-02-25T23:50:48.089Z,7.32
2019-02-25T23:53:18.803Z,7.32
2019-02-25T23:55:50.075Z,7.22
2019-02-25T23:58:22.290Z,7.27
